Time;durP1;ratioP1;P1;durP2;ratioP2;P2;SDS_P1;SDS_P2;PMS_P1;PMS_P2;Temp;Humidity;BMP_temperature;BMP_pressure;BME280_temperature;BME280_humidity;BME280_pressure;Samples;Min_cycle;Max_cycle;Signal;HPM_P1;HPM_P2
2023/09/10 00:01:16;;;;;;;9.30;8.25;;;15.00;99.90;;;;;;4973815;28;20397;-89
2023/09/10 00:03:42;;;;;;;9.52;7.97;;;15.00;99.90;;;;;;4973898;28;20078;-90
2023/09/10 00:06:09;;;;;;;10.35;8.70;;;15.00;99.90;;;;;;4990538;28;20030;-89
2023/09/10 00:08:35;;;;;;;10.48;8.32;;;14.90;99.90;;;;;;4966740;28;20058;-88
2023/09/10 00:11:02;;;;;;;11.65;8.98;;;14.90;99.90;;;;;;4994256;28;20089;-88
2023/09/10 00:13:28;;;;;;;9.95;8.20;;;14.90;99.90;;;;;;4980803;28;20037;-89
2023/09/10 00:15:55;;;;;;;10.38;8.18;;;14.90;99.90;;;;;;4977918;28;20022;-89
2023/09/10 00:18:21;;;;;;;9.32;8.15;;;14.80;99.90;;;;;;4973829;28;20046;-88
2023/09/10 00:20:49;;;;;;;11.77;8.73;;;14.80;99.90;;;;;;4980393;28;20018;-89
2023/09/10 00:23:15;;;;;;;10.98;9.30;;;14.80;99.90;;;;;;4976862;28;20026;-88
2023/09/10 00:25:41;;;;;;;13.88;8.88;;;14.80;99.90;;;;;;4989592;28;20041;-88
2023/09/10 00:28:09;;;;;;;11.02;8.75;;;14.80;99.90;;;;;;4993318;28;20431;-88
2023/09/10 00:30:36;;;;;;;10.57;8.43;;;14.70;99.90;;;;;;5004855;28;20022;-89
2023/09/10 00:33:02;;;;;;;11.80;8.45;;;14.70;99.90;;;;;;4978844;28;20045;-88
2023/09/10 00:35:28;;;;;;;10.27;8.48;;;14.70;99.90;;;;;;4980583;28;20045;-89
2023/09/10 00:37:54;;;;;;;12.80;9.13;;;14.70;99.90;;;;;;4972237;28;20019;-87
2023/09/10 00:40:22;;;;;;;12.63;8.35;;;14.70;99.90;;;;;;4998591;28;20507;-89
2023/09/10 00:42:48;;;;;;;10.68;8.93;;;14.60;99.90;;;;;;4969289;28;20121;-89
2023/09/10 00:45:14;;;;;;;12.85;9.27;;;14.60;99.90;;;;;;4984194;28;20212;-88
2023/09/10 00:47:52;;;;;;;10.50;9.13;;;14.60;99.90;;;;;;4968892;28;20034;-87
2023/09/10 00:50:20;;;;;;;11.27;9.38;;;14.60;99.90;;;;;;4999299;28;20810;-88
2023/09/10 00:52:50;;;;;;;14.05;9.98;;;14.60;99.90;;;;;;4972659;28;20030;-91
2023/09/10 00:55:18;;;;;;;11.73;9.75;;;14.60;99.90;;;;;;4975189;28;20046;-91
2023/09/10 00:57:44;;;;;;;11.02;9.60;;;14.60;99.90;;;;;;4975253;28;20054;-91
2023/09/10 01:00:12;;;;;;;13.88;11.07;;;14.50;99.90;;;;;;4992823;28;20057;-91
2023/09/10 01:02:43;;;;;;;12.30;8.93;;;14.50;99.90;;;;;;4974349;28;20117;-91
2023/09/10 01:05:11;;;;;;;10.40;9.25;;;14.50;99.90;;;;;;4990937;28;20049;-90
2023/09/10 01:07:37;;;;;;;11.57;10.00;;;14.50;99.90;;;;;;4974227;28;20032;-90
2023/09/10 01:10:05;;;;;;;12.90;10.05;;;14.40;99.90;;;;;;4991457;28;20030;-93
2023/09/10 01:12:46;;;;;;;12.88;9.80;;;14.40;99.90;;;;;;4991269;28;20130;-91
2023/09/10 01:15:21;;;;;;;13.45;10.30;;;14.40;99.90;;;;;;4991479;28;20026;-92
2023/09/10 01:18:15;;;;;;;13.07;10.15;;;14.40;99.90;;;;;;4991474;28;20030;-90
2023/09/10 01:21:06;;;;;;;12.25;9.65;;;14.40;99.90;;;;;;4992404;28;20039;-90
2023/09/10 01:24:12;;;;;;;11.02;9.45;;;14.40;99.90;;;;;;4993043;28;20034;-91
2023/09/10 01:26:40;;;;;;;10.00;7.88;;;14.40;99.90;;;;;;4987527;28;20030;-90
2023/09/10 01:29:14;;;;;;;11.15;8.70;;;14.40;99.90;;;;;;4975546;28;20140;-91
2023/09/10 01:31:48;;;;;;;12.52;9.15;;;14.30;99.90;;;;;;4975311;28;20535;-90
2023/09/10 01:34:16;;;;;;;10.77;8.73;;;14.30;99.90;;;;;;4991081;28;20140;-91
2023/09/10 01:36:49;;;;;;;9.65;8.65;;;14.30;99.90;;;;;;4990943;28;20364;-92
2023/09/10 01:39:40;;;;;;;9.43;8.38;;;14.20;99.90;;;;;;4971700;28;20043;-91
2023/09/10 01:42:07;;;;;;;12.18;8.98;;;14.20;99.90;;;;;;4966332;28;20033;-90
2023/09/10 01:44:35;;;;;;;15.52;10.70;;;14.30;99.90;;;;;;4990861;28;20057;-90
2023/09/10 01:47:04;;;;;;;12.25;9.70;;;14.20;99.90;;;;;;4990873;28;20084;-93
2023/09/10 01:49:31;;;;;;;10.98;9.57;;;14.20;99.90;;;;;;4974676;28;20030;-90
2023/09/10 01:51:58;;;;;;;13.48;10.20;;;14.20;99.90;;;;;;4984523;28;20030;-91
2023/09/10 01:54:24;;;;;;;12.63;9.52;;;14.20;99.90;;;;;;4981264;28;20641;-91
2023/09/10 01:56:50;;;;;;;11.48;9.63;;;14.10;99.90;;;;;;4990701;28;20030;-91
2023/09/10 01:59:16;;;;;;;11.77;9.75;;;14.10;99.90;;;;;;4990379;28;20030;-92
2023/09/10 02:01:42;;;;;;;12.50;10.27;;;14.10;99.90;;;;;;4990073;28;20026;-91
2023/09/10 02:04:08;;;;;;;12.57;9.93;;;14.10;99.90;;;;;;4990589;28;20113;-91
2023/09/10 02:06:36;;;;;;;11.85;9.65;;;14.10;99.90;;;;;;4990967;28;20026;-92
2023/09/10 02:09:02;;;;;;;13.77;10.30;;;14.00;99.90;;;;;;4975059;28;20039;-91
2023/09/10 02:11:29;;;;;;;13.45;9.68;;;14.00;99.90;;;;;;4990431;28;20042;-91
2023/09/10 02:13:55;;;;;;;11.82;10.00;;;14.00;99.90;;;;;;4990038;28;20457;-91
2023/09/10 02:16:21;;;;;;;11.23;9.15;;;14.00;99.90;;;;;;4974888;28;20022;-92
2023/09/10 02:18:47;;;;;;;13.18;10.30;;;14.00;99.90;;;;;;4974191;28;20064;-91
2023/09/10 02:21:13;;;;;;;13.48;10.25;;;14.00;99.90;;;;;;4958607;28;20526;-92
2023/09/10 02:23:42;;;;;;;13.30;10.15;;;14.00;99.90;;;;;;5006402;23;20052;-83
2023/09/10 02:26:08;;;;;;;11.65;9.18;;;14.00;99.90;;;;;;5021627;28;20057;-80
2023/09/10 02:28:34;;;;;;;12.13;9.75;;;13.90;99.90;;;;;;5034177;28;20699;-81
2023/09/10 02:31:07;;;;;;;14.98;10.07;;;13.90;99.90;;;;;;5031198;28;20057;-80
2023/09/10 02:33:34;;;;;;;13.45;10.27;;;13.90;99.90;;;;;;5033417;28;20042;-80
2023/09/10 02:36:01;;;;;;;13.07;10.00;;;13.90;99.90;;;;;;5041764;28;20041;-81
2023/09/10 02:38:27;;;;;;;11.35;10.00;;;13.80;99.90;;;;;;5045885;28;20036;-82
2023/09/10 02:40:55;;;;;;;12.73;9.73;;;13.80;99.90;;;;;;5027065;28;20032;-81
2023/09/10 02:43:21;;;;;;;12.98;9.98;;;13.80;99.90;;;;;;5029881;28;20033;-81
2023/09/10 02:45:47;;;;;;;13.40;10.40;;;13.80;99.90;;;;;;5025508;28;20029;-81
2023/09/10 02:48:13;;;;;;;12.25;9.27;;;13.80;99.90;;;;;;5027587;28;20029;-81
2023/09/10 02:50:40;;;;;;;12.32;9.82;;;13.80;99.90;;;;;;5030559;28;20022;-81
2023/09/10 02:53:05;;;;;;;10.98;9.77;;;13.80;99.90;;;;;;5030050;28;20026;-82
2023/09/10 02:55:31;;;;;;;12.20;9.93;;;13.80;99.90;;;;;;5027234;28;20041;-81
2023/09/10 02:57:57;;;;;;;12.52;9.68;;;13.80;99.90;;;;;;5013005;28;20021;-80
2023/09/10 03:00:25;;;;;;;11.25;9.35;;;13.70;99.90;;;;;;5029269;28;20318;-81
2023/09/10 03:02:55;;;;;;;12.18;9.98;;;13.70;99.90;;;;;;5027043;28;20092;-80
2023/09/10 03:05:21;;;;;;;12.45;10.13;;;13.70;99.90;;;;;;5036091;28;20512;-82
2023/09/10 03:07:52;;;;;;;12.18;10.23;;;13.70;99.90;;;;;;5033433;28;20033;-81
2023/09/10 03:10:18;;;;;;;13.32;10.38;;;13.70;99.90;;;;;;5043958;28;20554;-81
2023/09/10 03:12:44;;;;;;;12.95;9.85;;;13.60;99.90;;;;;;5026650;28;20036;-81
2023/09/10 03:15:11;;;;;;;11.05;9.82;;;13.60;99.90;;;;;;5033747;28;20064;-81
2023/09/10 03:17:37;;;;;;;11.77;9.85;;;13.60;99.90;;;;;;5034384;28;20049;-81
2023/09/10 03:20:04;;;;;;;13.45;9.88;;;13.60;99.90;;;;;;5028644;28;20079;-82
2023/09/10 03:22:30;;;;;;;14.15;11.10;;;13.60;99.90;;;;;;5044400;28;20127;-80
2023/09/10 03:24:57;;;;;;;12.05;10.00;;;13.60;99.90;;;;;;5017214;28;20504;-81
2023/09/10 03:27:23;;;;;;;12.23;9.55;;;13.60;99.90;;;;;;5031543;28;20044;-81
2023/09/10 03:29:48;;;;;;;12.43;9.38;;;13.50;99.90;;;;;;5030086;28;20033;-81
2023/09/10 03:32:14;;;;;;;11.25;9.90;;;13.50;99.90;;;;;;5028430;28;20029;-81
2023/09/10 03:34:42;;;;;;;14.48;10.02;;;13.50;99.90;;;;;;5045322;28;20021;-82
2023/09/10 03:37:08;;;;;;;11.63;9.90;;;13.50;99.90;;;;;;5033896;28;20439;-81
2023/09/10 03:39:36;;;;;;;11.93;9.63;;;13.50;99.90;;;;;;5029696;28;20025;-82
2023/09/10 03:42:03;;;;;;;12.73;10.27;;;13.50;99.90;;;;;;5011862;28;20034;-81
2023/09/10 03:44:28;;;;;;;12.85;9.80;;;13.50;99.90;;;;;;5044415;28;20029;-82
2023/09/10 03:46:54;;;;;;;11.63;9.93;;;13.40;99.90;;;;;;5032253;28;20026;-81
2023/09/10 03:49:21;;;;;;;11.75;9.65;;;13.40;99.90;;;;;;5031078;28;20030;-81
2023/09/10 03:51:48;;;;;;;12.27;10.00;;;13.40;99.90;;;;;;5029196;28;20519;-81
2023/09/10 03:54:15;;;;;;;12.05;9.02;;;13.40;99.90;;;;;;5029508;28;20037;-80
2023/09/10 03:56:41;;;;;;;11.43;9.27;;;13.30;99.90;;;;;;5030476;28;20028;-81
2023/09/10 03:59:08;;;;;;;12.10;9.35;;;13.30;99.90;;;;;;5031262;28;20057;-81
2023/09/10 04:01:37;;;;;;;11.23;9.18;;;13.30;99.90;;;;;;5028755;28;20021;-80
2023/09/10 04:04:06;;;;;;;11.82;9.05;;;13.30;99.90;;;;;;5016561;28;20673;-81
2023/09/10 04:06:32;;;;;;;11.45;9.43;;;13.30;99.90;;;;;;5034663;28;20030;-82
2023/09/10 04:08:59;;;;;;;13.48;10.32;;;13.30;99.90;;;;;;5029464;28;20516;-81
2023/09/10 04:11:25;;;;;;;11.18;9.38;;;13.20;99.90;;;;;;5030648;28;20109;-81
2023/09/10 04:13:51;;;;;;;12.10;10.55;;;13.20;99.90;;;;;;5033662;28;20063;-81
2023/09/10 04:16:16;;;;;;;13.07;10.32;;;13.20;99.90;;;;;;5020226;28;20136;-83
2023/09/10 04:18:43;;;;;;;14.68;10.98;;;13.20;99.90;;;;;;5036702;28;20105;-81
2023/09/10 04:21:09;;;;;;;14.10;10.25;;;13.20;99.90;;;;;;5034797;28;20052;-81
2023/09/10 04:23:35;;;;;;;13.93;10.32;;;13.20;99.90;;;;;;5030314;28;20060;-82
2023/09/10 04:26:01;;;;;;;12.57;10.30;;;13.20;99.90;;;;;;5028955;28;20045;-80
2023/09/10 04:28:26;;;;;;;15.35;10.88;;;13.10;99.90;;;;;;5028975;28;20034;-81
2023/09/10 04:30:52;;;;;;;13.73;11.05;;;13.10;99.90;;;;;;5012494;28;20026;-81
2023/09/10 04:33:18;;;;;;;13.95;11.43;;;13.10;99.90;;;;;;5037676;28;20024;-81
2023/09/10 04:35:58;;;;;;;15.02;11.68;;;13.10;99.90;;;;;;5042309;28;20136;-81
2023/09/10 04:38:24;;;;;;;13.68;10.95;;;13.10;99.90;;;;;;5031096;28;20126;-81
2023/09/10 04:40:51;;;;;;;12.30;10.20;;;13.10;99.90;;;;;;5028711;28;20029;-81
2023/09/10 04:43:16;;;;;;;12.65;10.15;;;13.10;99.90;;;;;;5029053;28;20041;-81
2023/09/10 04:45:42;;;;;;;12.98;9.52;;;13.10;99.90;;;;;;5020348;28;20044;-82
2023/09/10 04:48:08;;;;;;;13.35;10.70;;;13.10;99.90;;;;;;5033446;28;20070;-81
2023/09/10 04:50:34;;;;;;;12.95;9.80;;;13.10;99.90;;;;;;5016411;28;20060;-81
2023/09/10 04:53:01;;;;;;;14.52;10.77;;;13.10;99.90;;;;;;5032630;28;20037;-81
2023/09/10 04:55:27;;;;;;;11.52;9.98;;;13.10;99.90;;;;;;5017737;28;20025;-82
2023/09/10 04:57:53;;;;;;;12.73;10.07;;;13.10;99.90;;;;;;5031739;28;20028;-82
2023/09/10 05:00:19;;;;;;;13.10;10.05;;;13.10;99.90;;;;;;5027938;28;20025;-84
2023/09/10 05:02:45;;;;;;;13.00;10.77;;;13.10;99.90;;;;;;5035635;28;20033;-81
2023/09/10 05:05:10;;;;;;;14.40;10.80;;;13.10;99.90;;;;;;5029314;28;20060;-80
2023/09/10 05:07:36;;;;;;;15.13;10.18;;;13.10;99.90;;;;;;5029126;28;20120;-81
2023/09/10 05:10:02;;;;;;;11.98;9.93;;;13.10;99.90;;;;;;5028318;28;20456;-81
2023/09/10 05:12:29;;;;;;;10.88;9.40;;;13.10;99.90;;;;;;5041431;22;20149;-78
2023/09/10 05:14:55;;;;;;;11.90;8.60;;;13.10;99.90;;;;;;4998488;28;20109;-78
2023/09/10 05:17:21;;;;;;;10.75;8.93;;;13.10;99.90;;;;;;5020184;28;20021;-78
2023/09/10 05:19:47;;;;;;;11.85;9.18;;;13.10;99.90;;;;;;5023409;28;20147;-78
2023/09/10 05:22:14;;;;;;;11.65;9.05;;;13.10;99.90;;;;;;5012900;28;20041;-79
2023/09/10 05:24:40;;;;;;;13.57;9.57;;;13.10;99.90;;;;;;5022260;28;20038;-79
2023/09/10 05:27:06;;;;;;;16.60;9.65;;;13.20;99.90;;;;;;4997446;28;20027;-78
2023/09/10 05:29:32;;;;;;;12.60;9.52;;;13.20;99.90;;;;;;5013901;28;20417;-78
2023/09/10 05:31:58;;;;;;;14.18;11.07;;;13.20;99.90;;;;;;5010606;28;20033;-79
2023/09/10 05:34:24;;;;;;;12.07;9.73;;;13.20;99.90;;;;;;5013622;28;20033;-78
2023/09/10 05:36:50;;;;;;;13.95;10.15;;;13.20;99.90;;;;;;5008293;28;20025;-79
2023/09/10 05:39:16;;;;;;;15.35;11.63;;;13.30;99.90;;;;;;5016690;28;20032;-79
2023/09/10 05:41:42;;;;;;;15.90;12.23;;;13.30;99.90;;;;;;5009569;28;20569;-79
2023/09/10 05:44:08;;;;;;;13.88;11.07;;;13.40;99.90;;;;;;5012777;28;20037;-79
2023/09/10 05:46:34;;;;;;;14.88;10.95;;;13.40;99.90;;;;;;5010504;28;20044;-79
2023/09/10 05:48:59;;;;;;;15.45;11.63;;;13.60;99.90;;;;;;5005829;28;20037;-79
2023/09/10 05:51:25;;;;;;;15.10;12.07;;;13.70;99.90;;;;;;5009366;28;20128;-79
2023/09/10 05:53:51;;;;;;;16.10;12.07;;;13.90;99.90;;;;;;5007942;28;20083;-79
2023/09/10 05:56:18;;;;;;;15.68;11.90;;;14.10;99.90;;;;;;5006971;28;20152;-79
2023/09/10 05:58:44;;;;;;;15.40;11.60;;;14.30;99.90;;;;;;5004293;28;20029;-78
2023/09/10 06:01:10;;;;;;;14.73;10.70;;;14.50;99.90;;;;;;5009454;28;20394;-78
2023/09/10 06:03:36;;;;;;;11.20;9.02;;;14.80;99.90;;;;;;5015632;28;20026;-79
2023/09/10 06:06:02;;;;;;;11.50;9.35;;;15.10;99.90;;;;;;5007504;28;20068;-79
2023/09/10 06:08:31;;;;;;;12.80;8.32;;;15.40;99.90;;;;;;5010185;28;20103;-79
2023/09/10 06:10:58;;;;;;;9.52;7.22;;;15.70;99.90;;;;;;5012455;28;20037;-79
2023/09/10 06:13:23;;;;;;;9.77;7.88;;;16.00;99.90;;;;;;5016063;28;20385;-79
2023/09/10 06:15:49;;;;;;;10.38;7.75;;;16.20;99.90;;;;;;5016020;28;20069;-79
2023/09/10 06:18:15;;;;;;;9.15;7.57;;;16.50;99.90;;;;;;5011061;28;20061;-78
2023/09/10 06:20:41;;;;;;;8.55;7.40;;;16.70;99.90;;;;;;5009103;28;20061;-78
2023/09/10 06:23:07;;;;;;;10.98;7.70;;;16.90;99.90;;;;;;5012837;28;20693;-78
2023/09/10 06:25:33;;;;;;;8.80;7.78;;;17.10;99.90;;;;;;5011336;28;20148;-78
2023/09/10 06:28:00;;;;;;;11.00;8.55;;;17.20;99.90;;;;;;5020402;28;20038;-79
2023/09/10 06:30:26;;;;;;;12.02;9.20;;;17.50;99.90;;;;;;4994725;28;20034;-79
2023/09/10 06:32:52;;;;;;;10.48;9.10;;;17.60;99.90;;;;;;5003863;28;20037;-79
2023/09/10 06:35:18;;;;;;;11.30;9.15;;;17.70;99.90;;;;;;5007481;28;20037;-79
2023/09/10 06:37:47;;;;;;;10.07;8.93;;;17.90;99.90;;;;;;5008032;28;20038;-79
2023/09/10 06:40:13;;;;;;;13.27;9.27;;;18.00;99.90;;;;;;5012357;28;20068;-79
2023/09/10 06:42:40;;;;;;;11.70;9.65;;;18.20;99.90;;;;;;4996728;28;20513;-79
2023/09/10 06:45:13;;;;;;;10.77;9.68;;;18.20;99.90;;;;;;5013017;28;20113;-79
2023/09/10 06:47:39;;;;;;;14.18;10.90;;;18.30;99.90;;;;;;5012460;28;20026;-79
2023/09/10 06:50:05;;;;;;;12.90;8.63;;;18.40;99.90;;;;;;5003971;28;20050;-79
2023/09/10 06:52:31;;;;;;;11.95;10.13;;;18.60;99.90;;;;;;5015397;28;20044;-79
2023/09/10 06:54:57;;;;;;;15.40;12.18;;;18.70;99.90;;;;;;5014026;28;20117;-79
2023/09/10 06:57:23;;;;;;;12.10;9.77;;;18.90;99.90;;;;;;5015349;28;20034;-79
2023/09/10 06:59:49;;;;;;;9.55;8.55;;;19.00;99.90;;;;;;5004954;28;20026;-79
2023/09/10 07:02:14;;;;;;;15.15;11.07;;;19.20;99.90;;;;;;5020267;28;20049;-79
2023/09/10 07:04:47;;;;;;;13.82;12.20;;;19.30;99.90;;;;;;5020660;28;20109;-79
2023/09/10 07:07:14;;;;;;;11.13;9.60;;;19.40;99.90;;;;;;5011022;28;20030;-79
2023/09/10 07:09:40;;;;;;;11.77;10.30;;;19.60;99.90;;;;;;5014900;28;20084;-80
2023/09/10 07:12:06;;;;;;;14.23;10.25;;;19.70;99.90;;;;;;5007682;28;20476;-79
2023/09/10 07:14:32;;;;;;;11.45;10.25;;;19.70;99.90;;;;;;5005934;28;20057;-79
2023/09/10 07:16:58;;;;;;;12.60;10.65;;;19.80;99.90;;;;;;5005672;28;20383;-79
2023/09/10 07:19:24;;;;;;;15.30;11.80;;;20.00;99.90;;;;;;5014418;28;20026;-80
2023/09/10 07:21:49;;;;;;;13.70;11.10;;;20.00;99.90;;;;;;5008894;28;20034;-80
2023/09/10 07:24:15;;;;;;;12.43;10.57;;;19.90;99.90;;;;;;5010448;28;20034;-79
2023/09/10 07:26:43;;;;;;;15.73;11.50;;;20.20;99.90;;;;;;5015431;28;20041;-79
2023/09/10 07:29:09;;;;;;;14.68;11.23;;;20.20;99.90;;;;;;5013099;28;20045;-79
2023/09/10 07:31:35;;;;;;;11.50;10.30;;;20.30;99.90;;;;;;5020178;28;20419;-79
2023/09/10 07:34:02;;;;;;;12.07;9.50;;;20.50;99.90;;;;;;5001350;28;20042;-79
2023/09/10 07:36:28;;;;;;;10.75;9.60;;;20.70;99.90;;;;;;5010160;28;20473;-80
2023/09/10 07:38:55;;;;;;;14.15;10.63;;;20.70;99.90;;;;;;5021391;28;20029;-80
2023/09/10 07:41:21;;;;;;;10.82;9.73;;;20.70;99.90;;;;;;5009737;28;20084;-80
2023/09/10 07:43:47;;;;;;;10.63;9.43;;;20.80;99.90;;;;;;5017391;28;20099;-80
2023/09/10 07:46:12;;;;;;;13.50;10.45;;;21.00;99.90;;;;;;5013138;28;20499;-80
2023/09/10 07:48:38;;;;;;;12.50;10.38;;;21.00;99.90;;;;;;5011064;28;20030;-80
2023/09/10 07:51:05;;;;;;;15.30;10.63;;;20.90;99.90;;;;;;5006670;28;20030;-80
2023/09/10 07:53:31;;;;;;;20.17;11.15;;;20.90;99.90;;;;;;5013176;28;20041;-80
2023/09/10 07:55:58;;;;;;;12.82;10.50;;;20.90;99.90;;;;;;5012957;28;20029;-80
2023/09/10 07:58:24;;;;;;;13.25;10.68;;;20.90;99.90;;;;;;5011265;28;20265;-79
2023/09/10 08:00:55;;;;;;;18.27;10.70;;;21.00;99.90;;;;;;5019438;28;20083;-80
2023/09/10 08:03:20;;;;;;;11.63;9.73;;;21.10;99.90;;;;;;5012445;28;21071;-80
2023/09/10 08:05:46;;;;;;;13.68;10.50;;;21.40;99.90;;;;;;5010495;28;20039;-80
2023/09/10 08:08:12;;;;;;;13.10;11.00;;;21.40;99.90;;;;;;5012096;28;20063;-79
2023/09/10 08:10:38;;;;;;;12.18;10.43;;;21.60;99.90;;;;;;5002764;28;20390;-81
2023/09/10 08:13:04;;;;;;;11.93;9.88;;;21.60;99.90;;;;;;5009831;28;20034;-79
2023/09/10 08:15:31;;;;;;;11.70;10.05;;;21.80;99.90;;;;;;5016203;28;20582;-79
2023/09/10 08:17:58;;;;;;;10.88;9.77;;;21.90;99.90;;;;;;5007992;28;20109;-80
2023/09/10 08:20:24;;;;;;;12.02;10.43;;;22.10;99.90;;;;;;5010393;28;20025;-79
2023/09/10 08:22:49;;;;;;;12.52;9.95;;;22.10;99.90;;;;;;5009083;28;20038;-79
2023/09/10 08:25:15;;;;;;;15.60;10.18;;;22.00;99.90;;;;;;5008294;28;20073;-80
2023/09/10 08:27:41;;;;;;;12.13;10.75;;;22.10;99.90;;;;;;5017525;28;20033;-79
2023/09/10 08:30:09;;;;;;;11.10;9.82;;;22.20;99.90;;;;;;5010298;28;20030;-80
2023/09/10 08:32:36;;;;;;;10.45;9.23;;;22.30;99.90;;;;;;5009944;28;20084;-80
2023/09/10 08:35:03;;;;;;;11.35;10.15;;;22.50;99.90;;;;;;5008938;28;20022;-79
2023/09/10 08:37:30;;;;;;;12.07;9.13;;;22.70;99.90;;;;;;5008162;28;20033;-80
2023/09/10 08:39:57;;;;;;;11.18;9.77;;;22.70;99.90;;;;;;5012355;28;20038;-80
2023/09/10 08:42:50;;;;;;;11.18;8.82;;;22.80;99.90;;;;;;5004338;28;20030;-79
2023/09/10 08:45:16;;;;;;;12.02;9.30;;;22.90;99.90;;;;;;5013822;28;20049;-79
2023/09/10 08:47:43;;;;;;;9.38;8.40;;;22.90;99.90;;;;;;5008218;28;20113;-79
2023/09/10 08:50:11;;;;;;;11.75;10.48;;;23.00;99.90;;;;;;5025852;28;20061;-79
2023/09/10 08:52:39;;;;;;;10.85;9.23;;;23.00;99.90;;;;;;5010157;28;20386;-79
2023/09/10 08:55:07;;;;;;;10.77;9.45;;;23.10;99.90;;;;;;5017865;28;20041;-80
2023/09/10 08:57:37;;;;;;;11.38;9.68;;;23.10;99.90;;;;;;5009873;28;20061;-79
2023/09/10 09:00:12;;;;;;;10.85;9.73;;;23.10;99.90;;;;;;5010406;28;20046;-79
2023/09/10 09:02:44;;;;;;;13.00;10.50;;;23.20;99.90;;;;;;5006471;28;20033;-79
2023/09/10 09:05:11;;;;;;;11.15;9.98;;;23.30;99.90;;;;;;5010566;28;20033;-79
2023/09/10 09:07:47;;;;;;;13.88;11.77;;;23.40;99.90;;;;;;5009368;28;20037;-80
2023/09/10 09:10:24;;;;;;;12.48;11.18;;;23.30;99.90;;;;;;5001277;28;20042;-81
2023/09/10 09:12:55;;;;;;;14.50;10.98;;;23.40;99.90;;;;;;5009737;28;20041;-79
2023/09/10 09:15:21;;;;;;;15.90;10.57;;;23.50;99.90;;;;;;5008380;28;20034;-79
2023/09/10 09:17:48;;;;;;;11.80;10.60;;;23.60;99.90;;;;;;5007522;28;20134;-80
2023/09/10 09:20:16;;;;;;;13.18;10.55;;;23.60;99.90;;;;;;5013627;28;20394;-79
2023/09/10 09:23:16;;;;;;;12.27;10.98;;;23.70;99.90;;;;;;5019184;28;20115;-80
2023/09/10 09:25:42;;;;;;;11.93;10.73;;;23.90;99.90;;;;;;5010363;28;20025;-80
2023/09/10 09:28:09;;;;;;;12.75;10.65;;;23.90;99.90;;;;;;5011280;28;20096;-80
2023/09/10 09:30:36;;;;;;;12.60;10.68;;;24.00;99.90;;;;;;5013150;28;20033;-80
2023/09/10 09:33:01;;;;;;;12.18;10.15;;;24.10;99.90;;;;;;5010545;28;20030;-80
2023/09/10 09:35:27;;;;;;;14.45;11.40;;;24.10;99.90;;;;;;5010581;28;20119;-80
2023/09/10 09:37:53;;;;;;;12.57;11.25;;;24.10;99.90;;;;;;5004865;28;20037;-80
2023/09/10 09:40:21;;;;;;;12.57;11.18;;;24.10;99.90;;;;;;5009708;28;20069;-80
2023/09/10 09:42:47;;;;;;;11.95;10.10;;;24.10;99.90;;;;;;5005959;28;20022;-80
2023/09/10 09:45:13;;;;;;;10.90;9.52;;;24.20;99.90;;;;;;5009074;28;20053;-79
2023/09/10 09:47:44;;;;;;;10.73;9.63;;;24.20;99.90;;;;;;5008624;28;20056;-79
2023/09/10 09:50:14;;;;;;;13.32;11.38;;;24.30;99.90;;;;;;5000697;28;20525;-79
2023/09/10 09:52:40;;;;;;;10.95;9.95;;;24.40;99.90;;;;;;5004839;28;20049;-80
2023/09/10 09:55:07;;;;;;;12.95;10.48;;;24.40;99.90;;;;;;5007042;28;20379;-79
2023/09/10 09:57:36;;;;;;;12.60;10.63;;;24.40;99.90;;;;;;5003289;28;20091;-81
2023/09/10 10:00:08;;;;;;;12.98;10.02;;;24.40;99.90;;;;;;5005182;28;20038;-80
2023/09/10 10:02:34;;;;;;;11.57;10.32;;;24.40;99.90;;;;;;5004455;28;20026;-80
2023/09/10 10:05:00;;;;;;;12.55;10.52;;;24.50;99.90;;;;;;5005466;28;20030;-79
2023/09/10 10:07:28;;;;;;;11.80;10.30;;;24.50;99.90;;;;;;5003135;28;20052;-80
2023/09/10 10:09:53;;;;;;;10.98;9.60;;;24.60;99.90;;;;;;5010453;28;20041;-80
2023/09/10 10:12:20;;;;;;;12.90;11.52;;;24.70;99.90;;;;;;5005354;28;20399;-79
2023/09/10 10:14:47;;;;;;;10.75;9.65;;;24.80;99.90;;;;;;5015294;28;20033;-79
2023/09/10 10:17:15;;;;;;;12.02;10.82;;;24.80;99.90;;;;;;5004281;28;20025;-79
2023/09/10 10:19:42;;;;;;;9.88;8.88;;;24.90;99.90;;;;;;5006332;28;20026;-79
2023/09/10 10:22:08;;;;;;;14.10;10.07;;;24.90;99.90;;;;;;5006810;28;20026;-79
2023/09/10 10:24:53;;;;;;;11.45;9.75;;;24.90;99.90;;;;;;5002071;28;20048;-79
2023/09/10 10:27:21;;;;;;;10.65;9.55;;;24.90;99.90;;;;;;5013355;28;20514;-79
2023/09/10 10:29:47;;;;;;;12.05;10.27;;;25.00;99.90;;;;;;5011721;28;20034;-79
2023/09/10 10:32:19;;;;;;;11.40;10.13;;;25.10;99.90;;;;;;5011947;28;20065;-79
2023/09/10 10:34:49;;;;;;;12.25;10.75;;;25.10;99.90;;;;;;5007071;28;20210;-80
2023/09/10 10:37:26;;;;;;;13.02;9.88;;;25.10;99.90;;;;;;5017998;28;20577;-80
2023/09/10 10:40:13;;;;;;;10.35;9.27;;;25.00;99.90;;;;;;5007261;28;20037;-80
2023/09/10 10:42:44;;;;;;;11.80;10.00;;;25.10;99.90;;;;;;5014243;28;20041;-79
2023/09/10 10:45:15;;;;;;;17.20;10.85;;;25.10;99.90;;;;;;5016140;28;20026;-80
2023/09/10 10:47:42;;;;;;;12.77;10.18;;;25.10;99.90;;;;;;5004746;28;20026;-80
2023/09/10 10:50:10;;;;;;;13.13;10.77;;;25.20;99.90;;;;;;5026257;28;20393;-79
2023/09/10 10:52:43;;;;;;;11.88;10.10;;;25.30;99.90;;;;;;5006476;28;20033;-79
2023/09/10 10:55:10;;;;;;;12.25;10.10;;;25.30;99.90;;;;;;5015940;28;20041;-79
2023/09/10 10:57:37;;;;;;;11.18;9.75;;;25.30;99.90;;;;;;5012546;28;20034;-79
2023/09/10 11:00:05;;;;;;;14.30;10.30;;;25.30;99.90;;;;;;5011954;28;20033;-79
2023/09/10 11:02:30;;;;;;;9.63;8.73;;;25.50;99.90;;;;;;5012312;28;20034;-79
2023/09/10 11:05:04;;;;;;;10.35;9.23;;;25.50;99.90;;;;;;5011371;28;20032;-79
2023/09/10 11:07:31;;;;;;;11.00;9.27;;;25.70;99.90;;;;;;5009450;28;20562;-79
2023/09/10 11:10:17;;;;;;;8.38;7.57;;;25.80;99.90;;;;;;5010100;28;20018;-80
2023/09/10 11:15:12;;;;;;;9.10;7.50;;;25.90;99.90;;;;;;4965662;28;20145;-80
2023/09/10 11:17:38;;;;;;;9.40;8.50;;;26.10;99.90;;;;;;4971556;28;20055;-80
2023/09/10 11:20:06;;;;;;;9.15;8.25;;;26.10;99.90;;;;;;4959242;28;20043;-80
2023/09/10 11:23:07;;;;;;;10.07;8.55;;;26.10;99.90;;;;;;4965305;28;20108;-82
2023/09/10 11:25:33;;;;;;;10.75;8.88;;;26.10;99.90;;;;;;4947007;29;20032;-81
2023/09/10 11:27:59;;;;;;;9.48;8.57;;;26.10;99.90;;;;;;4948607;28;20529;-80
2023/09/10 11:30:25;;;;;;;8.70;7.80;;;26.20;99.90;;;;;;4951092;28;20040;-81
2023/09/10 11:33:30;;;;;;;9.65;8.65;;;26.40;99.90;;;;;;4950747;28;20415;-81
2023/09/10 11:35:58;;;;;;;9.27;7.93;;;26.40;99.90;;;;;;4946908;29;20420;-81
2023/09/10 11:38:28;;;;;;;9.52;7.63;;;26.30;99.80;;;;;;4949068;28;20016;-82
2023/09/10 11:40:54;;;;;;;9.80;7.50;;;26.40;99.90;;;;;;4951695;28;20027;-81
2023/09/10 11:43:20;;;;;;;10.18;8.73;;;26.50;99.90;;;;;;4951070;28;20753;-82
2023/09/10 11:45:46;;;;;;;13.35;9.13;;;26.50;99.30;;;;;;4946644;28;20042;-81
2023/09/10 11:48:30;;;;;;;8.52;7.22;;;26.70;99.90;;;;;;4946664;29;20099;-81
2023/09/10 11:50:56;;;;;;;7.72;6.93;;;26.90;99.90;;;;;;4947630;29;20067;-80
2023/09/10 11:53:22;;;;;;;9.00;7.40;;;27.00;99.90;;;;;;4952028;28;20427;-81
2023/09/10 11:55:48;;;;;;;8.45;6.53;;;27.10;99.90;;;;;;4945117;29;20031;-81
2023/09/10 11:58:14;;;;;;;7.15;6.45;;;27.00;95.00;;;;;;4949080;29;20491;-80
2023/09/10 12:00:44;;;;;;;6.75;6.07;;;27.00;97.90;;;;;;4938637;29;20405;-81
2023/09/10 12:03:10;;;;;;;7.32;6.25;;;27.10;94.50;;;;;;4944225;28;20078;-80
2023/09/10 12:05:36;;;;;;;7.30;5.97;;;27.10;93.90;;;;;;4947031;29;20079;-81
2023/09/10 12:08:03;;;;;;;8.32;6.43;;;27.10;94.90;;;;;;4966538;28;20038;-80
2023/09/10 12:10:31;;;;;;;7.55;6.00;;;27.20;97.50;;;;;;4950107;29;20706;-81
2023/09/10 12:13:03;;;;;;;7.50;6.72;;;27.20;94.90;;;;;;4940906;29;20585;-80
2023/09/10 12:15:31;;;;;;;8.52;6.53;;;27.20;96.00;;;;;;4947402;28;20050;-80
2023/09/10 12:18:00;;;;;;;6.95;6.32;;;27.40;97.80;;;;;;4950606;28;20698;-80
2023/09/10 12:20:29;;;;;;;6.80;6.10;;;27.40;96.30;;;;;;4941761;29;20051;-80
2023/09/10 12:22:55;;;;;;;9.65;6.45;;;27.60;97.60;;;;;;4946821;29;20043;-80
2023/09/10 12:25:21;;;;;;;9.65;6.85;;;27.70;97.80;;;;;;4947264;29;20122;-80
2023/09/10 12:27:46;;;;;;;7.18;6.30;;;27.70;97.50;;;;;;4946488;29;20110;-80
2023/09/10 12:30:13;;;;;;;8.93;6.97;;;27.80;97.10;;;;;;4951113;29;20046;-81
2023/09/10 12:32:39;;;;;;;8.55;6.65;;;27.80;95.30;;;;;;4946155;29;20019;-81
2023/09/10 12:35:05;;;;;;;7.07;6.38;;;27.90;92.30;;;;;;4950956;28;20043;-80
2023/09/10 12:37:31;;;;;;;7.00;6.25;;;28.00;93.70;;;;;;4942831;29;20115;-81
2023/09/10 12:44:54;;;;;;;7.10;5.95;;;28.10;95.00;;;;;;4965656;28;20038;-80